sensor_id;sensor_type;location;lat;lon;timestamp;P1;durP1;ratioP1;P2;durP2;ratioP2
19087;SDS011;9676;50.916;13.352;2023-04-16T00:02:23;12.90;;;11.70;;
19087;SDS011;9676;50.916;13.352;2023-04-16T00:05:14;13.13;;;11.93;;
19087;SDS011;9676;50.916;13.352;2023-04-16T00:08:03;13.67;;;12.37;;
19087;SDS011;9676;50.916;13.352;2023-04-16T00:10:52;13.47;;;12.27;;
19087;SDS011;9676;50.916;13.352;2023-04-16T00:13:42;13.40;;;12.20;;
19087;SDS011;9676;50.916;13.352;2023-04-16T00:16:31;13.80;;;12.40;;
19087;SDS011;9676;50.916;13.352;2023-04-16T00:19:23;13.33;;;12.03;;
19087;SDS011;9676;50.916;13.352;2023-04-16T00:22:12;13.07;;;11.77;;
19087;SDS011;9676;50.916;13.352;2023-04-16T00:25:02;13.70;;;12.30;;
19087;SDS011;9676;50.916;13.352;2023-04-16T00:27:52;13.13;;;11.83;;
19087;SDS011;9676;50.916;13.352;2023-04-16T00:30:41;13.60;;;12.30;;
19087;SDS011;9676;50.916;13.352;2023-04-16T00:33:31;13.30;;;12.00;;
19087;SDS011;9676;50.916;13.352;2023-04-16T00:36:21;13.30;;;12.00;;
19087;SDS011;9676;50.916;13.352;2023-04-16T00:39:11;13.73;;;12.50;;
19087;SDS011;9676;50.916;13.352;2023-04-16T00:42:02;13.67;;;12.03;;
19087;SDS011;9676;50.916;13.352;2023-04-16T00:44:51;14.43;;;13.03;;
19087;SDS011;9676;50.916;13.352;2023-04-16T00:47:41;13.33;;;12.00;;
19087;SDS011;9676;50.916;13.352;2023-04-16T00:50:30;13.60;;;12.30;;
19087;SDS011;9676;50.916;13.352;2023-04-16T00:53:22;14.80;;;13.40;;
19087;SDS011;9676;50.916;13.352;2023-04-16T00:56:12;14.53;;;13.13;;
19087;SDS011;9676;50.916;13.352;2023-04-16T00:59:04;15.83;;;13.80;;
19087;SDS011;9676;50.916;13.352;2023-04-16T01:01:54;14.20;;;12.80;;
19087;SDS011;9676;50.916;13.352;2023-04-16T01:04:43;14.00;;;12.67;;
19087;SDS011;9676;50.916;13.352;2023-04-16T01:07:33;13.67;;;12.37;;
19087;SDS011;9676;50.916;13.352;2023-04-16T01:10:23;14.10;;;12.80;;
19087;SDS011;9676;50.916;13.352;2023-04-16T01:13:13;13.13;;;11.93;;
19087;SDS011;9676;50.916;13.352;2023-04-16T01:16:02;13.50;;;12.27;;
19087;SDS011;9676;50.916;13.352;2023-04-16T01:18:52;13.00;;;11.90;;
19087;SDS011;9676;50.916;13.352;2023-04-16T01:21:43;13.63;;;12.43;;
19087;SDS011;9676;50.916;13.352;2023-04-16T01:24:33;13.23;;;12.00;;
19087;SDS011;9676;50.916;13.352;2023-04-16T01:27:22;13.80;;;12.50;;
19087;SDS011;9676;50.916;13.352;2023-04-16T01:30:13;12.90;;;11.70;;
19087;SDS011;9676;50.916;13.352;2023-04-16T01:33:13;13.33;;;12.13;;
19087;SDS011;9676;50.916;13.352;2023-04-16T01:36:04;13.77;;;12.40;;
19087;SDS011;9676;50.916;13.352;2023-04-16T01:38:56;13.70;;;12.40;;
19087;SDS011;9676;50.916;13.352;2023-04-16T01:41:46;13.17;;;11.87;;
19087;SDS011;9676;50.916;13.352;2023-04-16T01:44:35;13.23;;;12.03;;
19087;SDS011;9676;50.916;13.352;2023-04-16T01:47:25;13.30;;;12.10;;
19087;SDS011;9676;50.916;13.352;2023-04-16T01:50:14;14.50;;;13.10;;
19087;SDS011;9676;50.916;13.352;2023-04-16T01:53:04;13.43;;;12.13;;
19087;SDS011;9676;50.916;13.352;2023-04-16T01:55:55;14.33;;;12.93;;
19087;SDS011;9676;50.916;13.352;2023-04-16T01:58:44;14.27;;;12.87;;
19087;SDS011;9676;50.916;13.352;2023-04-16T02:01:36;14.30;;;12.90;;
19087;SDS011;9676;50.916;13.352;2023-04-16T02:04:25;14.83;;;13.33;;
19087;SDS011;9676;50.916;13.352;2023-04-16T02:07:15;14.20;;;12.80;;
19087;SDS011;9676;50.916;13.352;2023-04-16T02:10:04;14.10;;;12.80;;
19087;SDS011;9676;50.916;13.352;2023-04-16T02:13:00;15.00;;;13.50;;
19087;SDS011;9676;50.916;13.352;2023-04-16T02:15:50;14.33;;;13.00;;
19087;SDS011;9676;50.916;13.352;2023-04-16T02:18:50;14.13;;;12.83;;
19087;SDS011;9676;50.916;13.352;2023-04-16T02:21:42;14.53;;;13.13;;
19087;SDS011;9676;50.916;13.352;2023-04-16T02:24:31;14.27;;;12.87;;
19087;SDS011;9676;50.916;13.352;2023-04-16T02:27:25;14.57;;;12.97;;
19087;SDS011;9676;50.916;13.352;2023-04-16T02:30:23;15.00;;;13.60;;
19087;SDS011;9676;50.916;13.352;2023-04-16T02:33:13;14.50;;;13.10;;
19087;SDS011;9676;50.916;13.352;2023-04-16T02:36:14;15.50;;;12.97;;
19087;SDS011;9676;50.916;13.352;2023-04-16T02:39:03;14.20;;;12.80;;
19087;SDS011;9676;50.916;13.352;2023-04-16T02:41:53;14.63;;;13.13;;
19087;SDS011;9676;50.916;13.352;2023-04-16T02:44:42;14.90;;;13.40;;
19087;SDS011;9676;50.916;13.352;2023-04-16T02:47:33;14.20;;;12.80;;
19087;SDS011;9676;50.916;13.352;2023-04-16T02:50:22;14.80;;;13.30;;
19087;SDS011;9676;50.916;13.352;2023-04-16T02:53:12;14.53;;;13.00;;
19087;SDS011;9676;50.916;13.352;2023-04-16T02:56:01;14.53;;;13.20;;
19087;SDS011;9676;50.916;13.352;2023-04-16T02:58:51;14.70;;;13.20;;
19087;SDS011;9676;50.916;13.352;2023-04-16T03:01:40;13.57;;;12.37;;
19087;SDS011;9676;50.916;13.352;2023-04-16T03:04:32;14.90;;;13.50;;
19087;SDS011;9676;50.916;13.352;2023-04-16T03:07:22;13.63;;;12.33;;
19087;SDS011;9676;50.916;13.352;2023-04-16T03:10:12;14.17;;;12.87;;
19087;SDS011;9676;50.916;13.352;2023-04-16T03:13:01;14.40;;;12.90;;
19087;SDS011;9676;50.916;13.352;2023-04-16T03:15:51;13.87;;;12.60;;
19087;SDS011;9676;50.916;13.352;2023-04-16T03:18:41;14.17;;;12.87;;
19087;SDS011;9676;50.916;13.352;2023-04-16T03:21:31;13.20;;;12.00;;
19087;SDS011;9676;50.916;13.352;2023-04-16T03:24:21;13.50;;;12.20;;
19087;SDS011;9676;50.916;13.352;2023-04-16T03:27:10;13.90;;;12.60;;
19087;SDS011;9676;50.916;13.352;2023-04-16T03:30:00;14.10;;;12.80;;
19087;SDS011;9676;50.916;13.352;2023-04-16T03:32:52;14.70;;;13.30;;
19087;SDS011;9676;50.916;13.352;2023-04-16T03:35:42;13.50;;;12.20;;
19087;SDS011;9676;50.916;13.352;2023-04-16T03:38:33;14.43;;;13.00;;
19087;SDS011;9676;50.916;13.352;2023-04-16T03:41:23;14.20;;;12.83;;
19087;SDS011;9676;50.916;13.352;2023-04-16T03:44:12;12.97;;;11.80;;
19087;SDS011;9676;50.916;13.352;2023-04-16T03:47:01;15.10;;;13.70;;
19087;SDS011;9676;50.916;13.352;2023-04-16T03:49:51;14.33;;;13.03;;
19087;SDS011;9676;50.916;13.352;2023-04-16T03:52:40;14.63;;;13.07;;
19087;SDS011;9676;50.916;13.352;2023-04-16T03:55:33;14.10;;;12.77;;
19087;SDS011;9676;50.916;13.352;2023-04-16T03:58:22;14.03;;;12.73;;
19087;SDS011;9676;50.916;13.352;2023-04-16T04:01:12;13.80;;;12.50;;
19087;SDS011;9676;50.916;13.352;2023-04-16T04:04:02;14.23;;;12.83;;
19087;SDS011;9676;50.916;13.352;2023-04-16T04:06:51;13.03;;;11.83;;
19087;SDS011;9676;50.916;13.352;2023-04-16T04:09:41;13.83;;;12.53;;
19087;SDS011;9676;50.916;13.352;2023-04-16T04:12:32;13.80;;;12.53;;
19087;SDS011;9676;50.916;13.352;2023-04-16T04:15:21;14.20;;;12.93;;
19087;SDS011;9676;50.916;13.352;2023-04-16T04:18:11;14.00;;;12.63;;
19087;SDS011;9676;50.916;13.352;2023-04-16T04:21:04;13.87;;;12.57;;
19087;SDS011;9676;50.916;13.352;2023-04-16T04:23:54;14.13;;;12.73;;
19087;SDS011;9676;50.916;13.352;2023-04-16T04:26:43;16.07;;;13.20;;
19087;SDS011;9676;50.916;13.352;2023-04-16T04:29:34;13.30;;;12.07;;
19087;SDS011;9676;50.916;13.352;2023-04-16T04:32:25;13.70;;;12.33;;
19087;SDS011;9676;50.916;13.352;2023-04-16T04:35:14;13.10;;;11.90;;
19087;SDS011;9676;50.916;13.352;2023-04-16T04:38:03;14.30;;;13.00;;
19087;SDS011;9676;50.916;13.352;2023-04-16T04:40:54;13.63;;;12.43;;
19087;SDS011;9676;50.916;13.352;2023-04-16T04:43:45;13.37;;;12.17;;
19087;SDS011;9676;50.916;13.352;2023-04-16T04:46:37;12.80;;;11.60;;
19087;SDS011;9676;50.916;13.352;2023-04-16T04:49:27;13.70;;;12.30;;
19087;SDS011;9676;50.916;13.352;2023-04-16T04:52:16;13.77;;;12.40;;
19087;SDS011;9676;50.916;13.352;2023-04-16T04:55:07;13.40;;;12.20;;
19087;SDS011;9676;50.916;13.352;2023-04-16T04:57:57;13.10;;;11.90;;
19087;SDS011;9676;50.916;13.352;2023-04-16T05:00:46;13.23;;;12.03;;
19087;SDS011;9676;50.916;13.352;2023-04-16T05:03:37;13.00;;;11.80;;
19087;SDS011;9676;50.916;13.352;2023-04-16T05:06:26;13.40;;;12.20;;
19087;SDS011;9676;50.916;13.352;2023-04-16T05:09:16;12.77;;;11.67;;
19087;SDS011;9676;50.916;13.352;2023-04-16T05:12:05;12.93;;;11.73;;
19087;SDS011;9676;50.916;13.352;2023-04-16T05:14:54;13.00;;;11.90;;
19087;SDS011;9676;50.916;13.352;2023-04-16T05:17:44;13.47;;;12.20;;
19087;SDS011;9676;50.916;13.352;2023-04-16T05:20:34;13.00;;;11.80;;
19087;SDS011;9676;50.916;13.352;2023-04-16T05:23:24;13.20;;;12.00;;
19087;SDS011;9676;50.916;13.352;2023-04-16T05:26:13;13.57;;;12.30;;
19087;SDS011;9676;50.916;13.352;2023-04-16T05:29:02;12.70;;;11.50;;
19087;SDS011;9676;50.916;13.352;2023-04-16T05:31:52;13.13;;;11.93;;
19087;SDS011;9676;50.916;13.352;2023-04-16T05:34:41;12.63;;;11.53;;
19087;SDS011;9676;50.916;13.352;2023-04-16T05:37:32;12.87;;;11.67;;
19087;SDS011;9676;50.916;13.352;2023-04-16T05:40:21;12.63;;;11.53;;
19087;SDS011;9676;50.916;13.352;2023-04-16T05:43:10;12.80;;;11.60;;
19087;SDS011;9676;50.916;13.352;2023-04-16T05:46:00;12.90;;;11.70;;
19087;SDS011;9676;50.916;13.352;2023-04-16T05:48:49;13.93;;;12.63;;
19087;SDS011;9676;50.916;13.352;2023-04-16T05:51:38;14.17;;;12.80;;
19087;SDS011;9676;50.916;13.352;2023-04-16T05:54:29;12.73;;;11.63;;
19087;SDS011;9676;50.916;13.352;2023-04-16T05:57:18;13.47;;;12.17;;
19087;SDS011;9676;50.916;13.352;2023-04-16T06:00:08;13.37;;;12.17;;
19087;SDS011;9676;50.916;13.352;2023-04-16T06:02:58;13.30;;;12.00;;
19087;SDS011;9676;50.916;13.352;2023-04-16T06:05:48;13.13;;;11.93;;
19087;SDS011;9676;50.916;13.352;2023-04-16T06:08:37;13.20;;;11.93;;
19087;SDS011;9676;50.916;13.352;2023-04-16T06:11:28;12.63;;;11.47;;
19087;SDS011;9676;50.916;13.352;2023-04-16T06:14:18;13.03;;;11.83;;
19087;SDS011;9676;50.916;13.352;2023-04-16T06:17:07;12.63;;;11.40;;
19087;SDS011;9676;50.916;13.352;2023-04-16T06:19:56;12.97;;;11.77;;
19087;SDS011;9676;50.916;13.352;2023-04-16T06:22:45;13.27;;;11.97;;
19087;SDS011;9676;50.916;13.352;2023-04-16T06:25:35;12.90;;;11.70;;
19087;SDS011;9676;50.916;13.352;2023-04-16T06:28:26;13.40;;;12.10;;
19087;SDS011;9676;50.916;13.352;2023-04-16T06:31:15;12.90;;;11.70;;
19087;SDS011;9676;50.916;13.352;2023-04-16T06:34:04;13.23;;;11.93;;
19087;SDS011;9676;50.916;13.352;2023-04-16T06:36:54;13.10;;;11.80;;
19087;SDS011;9676;50.916;13.352;2023-04-16T06:39:43;12.97;;;11.67;;
19087;SDS011;9676;50.916;13.352;2023-04-16T06:42:32;14.00;;;12.70;;
19087;SDS011;9676;50.916;13.352;2023-04-16T06:45:23;13.50;;;12.20;;
19087;SDS011;9676;50.916;13.352;2023-04-16T06:48:13;12.90;;;11.70;;
19087;SDS011;9676;50.916;13.352;2023-04-16T06:51:02;13.20;;;12.00;;
19087;SDS011;9676;50.916;13.352;2023-04-16T06:53:52;13.70;;;12.40;;
19087;SDS011;9676;50.916;13.352;2023-04-16T06:56:41;14.13;;;12.80;;
19087;SDS011;9676;50.916;13.352;2023-04-16T06:59:30;13.13;;;11.90;;
19087;SDS011;9676;50.916;13.352;2023-04-16T07:02:22;13.67;;;12.37;;
19087;SDS011;9676;50.916;13.352;2023-04-16T07:05:12;13.10;;;11.87;;
19087;SDS011;9676;50.916;13.352;2023-04-16T07:08:01;13.50;;;12.20;;
19087;SDS011;9676;50.916;13.352;2023-04-16T07:10:51;13.37;;;12.10;;
19087;SDS011;9676;50.916;13.352;2023-04-16T07:13:41;13.20;;;12.00;;
19087;SDS011;9676;50.916;13.352;2023-04-16T07:16:30;13.70;;;12.40;;
19087;SDS011;9676;50.916;13.352;2023-04-16T07:19:21;13.60;;;12.30;;
19087;SDS011;9676;50.916;13.352;2023-04-16T07:22:10;14.33;;;12.83;;
19087;SDS011;9676;50.916;13.352;2023-04-16T07:25:00;14.20;;;12.80;;
19087;SDS011;9676;50.916;13.352;2023-04-16T07:27:49;13.57;;;12.27;;
19087;SDS011;9676;50.916;13.352;2023-04-16T07:30:39;14.00;;;12.70;;
19087;SDS011;9676;50.916;13.352;2023-04-16T07:33:28;13.03;;;11.83;;
19087;SDS011;9676;50.916;13.352;2023-04-16T07:36:19;13.80;;;12.50;;
19087;SDS011;9676;50.916;13.352;2023-04-16T07:39:08;13.50;;;12.10;;
19087;SDS011;9676;50.916;13.352;2023-04-16T07:41:59;13.57;;;12.27;;
19087;SDS011;9676;50.916;13.352;2023-04-16T07:44:48;13.13;;;11.83;;
19087;SDS011;9676;50.916;13.352;2023-04-16T07:47:38;13.50;;;12.20;;
19087;SDS011;9676;50.916;13.352;2023-04-16T07:50:27;12.90;;;11.70;;
19087;SDS011;9676;50.916;13.352;2023-04-16T07:53:18;12.67;;;11.47;;
19087;SDS011;9676;50.916;13.352;2023-04-16T07:56:08;12.63;;;11.43;;
19087;SDS011;9676;50.916;13.352;2023-04-16T07:58:57;12.60;;;11.40;;
19087;SDS011;9676;50.916;13.352;2023-04-16T08:02:05;12.30;;;11.20;;
19087;SDS011;9676;50.916;13.352;2023-04-16T08:04:55;12.37;;;11.07;;
19087;SDS011;9676;50.916;13.352;2023-04-16T08:07:44;12.60;;;11.50;;
19087;SDS011;9676;50.916;13.352;2023-04-16T08:10:35;12.70;;;11.50;;
19087;SDS011;9676;50.916;13.352;2023-04-16T08:13:25;12.57;;;11.40;;
19087;SDS011;9676;50.916;13.352;2023-04-16T08:16:14;13.13;;;11.90;;
19087;SDS011;9676;50.916;13.352;2023-04-16T08:19:04;12.20;;;11.10;;
19087;SDS011;9676;50.916;13.352;2023-04-16T08:21:54;12.27;;;11.10;;
19087;SDS011;9676;50.916;13.352;2023-04-16T08:24:44;12.20;;;11.10;;
19087;SDS011;9676;50.916;13.352;2023-04-16T08:27:34;12.00;;;10.90;;
19087;SDS011;9676;50.916;13.352;2023-04-16T08:30:24;11.87;;;10.77;;
19087;SDS011;9676;50.916;13.352;2023-04-16T08:33:13;12.50;;;11.30;;
19087;SDS011;9676;50.916;13.352;2023-04-16T08:36:03;11.93;;;10.83;;
19087;SDS011;9676;50.916;13.352;2023-04-16T08:38:53;11.93;;;10.83;;
19087;SDS011;9676;50.916;13.352;2023-04-16T08:41:43;11.67;;;10.57;;
19087;SDS011;9676;50.916;13.352;2023-04-16T08:44:36;12.00;;;10.90;;
19087;SDS011;9676;50.916;13.352;2023-04-16T08:47:35;11.83;;;10.73;;
19087;SDS011;9676;50.916;13.352;2023-04-16T08:50:25;11.60;;;10.60;;
19087;SDS011;9676;50.916;13.352;2023-04-16T08:53:16;11.90;;;10.80;;
19087;SDS011;9676;50.916;13.352;2023-04-16T08:56:08;11.33;;;10.33;;
19087;SDS011;9676;50.916;13.352;2023-04-16T08:58:59;11.70;;;10.60;;
19087;SDS011;9676;50.916;13.352;2023-04-16T09:01:53;11.60;;;10.50;;
19087;SDS011;9676;50.916;13.352;2023-04-16T09:04:46;12.23;;;11.07;;
19087;SDS011;9676;50.916;13.352;2023-04-16T09:07:38;11.60;;;10.50;;
19087;SDS011;9676;50.916;13.352;2023-04-16T09:10:29;12.10;;;11.00;;
19087;SDS011;9676;50.916;13.352;2023-04-16T09:13:19;11.77;;;10.67;;
19087;SDS011;9676;50.916;13.352;2023-04-16T09:16:10;11.97;;;10.87;;
19087;SDS011;9676;50.916;13.352;2023-04-16T09:19:03;12.00;;;10.80;;
19087;SDS011;9676;50.916;13.352;2023-04-16T09:21:53;12.03;;;10.83;;
19087;SDS011;9676;50.916;13.352;2023-04-16T09:24:44;11.57;;;10.47;;
19087;SDS011;9676;50.916;13.352;2023-04-16T09:27:34;12.13;;;10.97;;
19087;SDS011;9676;50.916;13.352;2023-04-16T09:30:25;11.93;;;10.83;;
19087;SDS011;9676;50.916;13.352;2023-04-16T09:33:16;11.93;;;10.83;;
19087;SDS011;9676;50.916;13.352;2023-04-16T09:36:11;11.90;;;10.70;;
19087;SDS011;9676;50.916;13.352;2023-04-16T09:39:01;12.00;;;10.90;;
19087;SDS011;9676;50.916;13.352;2023-04-16T09:41:51;12.00;;;10.90;;
19087;SDS011;9676;50.916;13.352;2023-04-16T09:44:42;12.37;;;11.17;;
19087;SDS011;9676;50.916;13.352;2023-04-16T09:47:39;12.57;;;11.40;;
19087;SDS011;9676;50.916;13.352;2023-04-16T09:50:30;12.10;;;10.90;;
19087;SDS011;9676;50.916;13.352;2023-04-16T09:53:23;12.20;;;11.10;;
19087;SDS011;9676;50.916;13.352;2023-04-16T09:56:13;12.50;;;11.30;;
19087;SDS011;9676;50.916;13.352;2023-04-16T09:59:03;12.07;;;10.97;;
19087;SDS011;9676;50.916;13.352;2023-04-16T10:01:57;12.30;;;11.10;;
19087;SDS011;9676;50.916;13.352;2023-04-16T10:05:02;12.33;;;11.17;;
19087;SDS011;9676;50.916;13.352;2023-04-16T10:07:53;12.20;;;11.10;;
19087;SDS011;9676;50.916;13.352;2023-04-16T10:10:49;11.87;;;10.77;;
19087;SDS011;9676;50.916;13.352;2023-04-16T10:13:40;12.87;;;11.67;;
19087;SDS011;9676;50.916;13.352;2023-04-16T10:16:37;12.63;;;11.43;;
19087;SDS011;9676;50.916;13.352;2023-04-16T10:19:28;13.03;;;11.17;;
19087;SDS011;9676;50.916;13.352;2023-04-16T10:22:19;12.17;;;10.97;;
19087;SDS011;9676;50.916;13.352;2023-04-16T10:25:08;11.77;;;10.67;;
19087;SDS011;9676;50.916;13.352;2023-04-16T10:27:58;11.37;;;10.33;;
19087;SDS011;9676;50.916;13.352;2023-04-16T10:30:48;11.90;;;10.70;;
19087;SDS011;9676;50.916;13.352;2023-04-16T10:33:41;11.43;;;10.33;;
19087;SDS011;9676;50.916;13.352;2023-04-16T10:36:34;12.00;;;10.80;;
19087;SDS011;9676;50.916;13.352;2023-04-16T10:39:26;11.53;;;10.43;;
19087;SDS011;9676;50.916;13.352;2023-04-16T10:42:16;11.07;;;10.07;;
19087;SDS011;9676;50.916;13.352;2023-04-16T10:45:06;17.90;;;16.00;;
19087;SDS011;9676;50.916;13.352;2023-04-16T10:48:01;21.37;;;19.07;;
19087;SDS011;9676;50.916;13.352;2023-04-16T10:50:56;16.83;;;15.13;;
19087;SDS011;9676;50.916;13.352;2023-04-16T10:53:46;14.60;;;13.10;;
19087;SDS011;9676;50.916;13.352;2023-04-16T10:56:35;13.83;;;12.10;;
19087;SDS011;9676;50.916;13.352;2023-04-16T10:59:28;14.10;;;12.60;;
19087;SDS011;9676;50.916;13.352;2023-04-16T11:02:23;12.80;;;11.60;;
19087;SDS011;9676;50.916;13.352;2023-04-16T11:05:19;12.30;;;11.13;;
19087;SDS011;9676;50.916;13.352;2023-04-16T11:08:13;12.23;;;10.53;;
19087;SDS011;9676;50.916;13.352;2023-04-16T11:11:03;11.13;;;10.10;;
19087;SDS011;9676;50.916;13.352;2023-04-16T11:13:54;11.07;;;10.07;;
19087;SDS011;9676;50.916;13.352;2023-04-16T11:16:44;11.50;;;10.40;;
19087;SDS011;9676;50.916;13.352;2023-04-16T11:19:34;11.50;;;9.93;;
19087;SDS011;9676;50.916;13.352;2023-04-16T11:22:24;11.00;;;10.00;;
19087;SDS011;9676;50.916;13.352;2023-04-16T11:25:19;10.57;;;9.60;;
19087;SDS011;9676;50.916;13.352;2023-04-16T11:28:09;10.87;;;9.87;;
19087;SDS011;9676;50.916;13.352;2023-04-16T11:30:58;10.40;;;9.50;;
19087;SDS011;9676;50.916;13.352;2023-04-16T11:33:58;10.13;;;9.23;;
19087;SDS011;9676;50.916;13.352;2023-04-16T11:36:48;10.27;;;9.37;;
19087;SDS011;9676;50.916;13.352;2023-04-16T11:39:48;10.30;;;9.40;;
19087;SDS011;9676;50.916;13.352;2023-04-16T11:42:40;9.90;;;9.00;;
19087;SDS011;9676;50.916;13.352;2023-04-16T11:45:30;9.90;;;9.00;;
19087;SDS011;9676;50.916;13.352;2023-04-16T11:48:20;10.30;;;9.40;;
19087;SDS011;9676;50.916;13.352;2023-04-16T11:51:09;10.90;;;9.80;;
19087;SDS011;9676;50.916;13.352;2023-04-16T11:53:58;10.33;;;9.33;;
19087;SDS011;9676;50.916;13.352;2023-04-16T11:56:48;10.57;;;9.60;;
19087;SDS011;9676;50.916;13.352;2023-04-16T11:59:44;10.83;;;9.87;;
19087;SDS011;9676;50.916;13.352;2023-04-16T12:03:09;11.47;;;10.37;;
19087;SDS011;9676;50.916;13.352;2023-04-16T12:06:06;11.77;;;10.67;;
19087;SDS011;9676;50.916;13.352;2023-04-16T12:08:56;11.40;;;10.30;;
19087;SDS011;9676;50.916;13.352;2023-04-16T12:11:45;12.00;;;10.90;;
19087;SDS011;9676;50.916;13.352;2023-04-16T12:14:34;12.20;;;11.00;;
19087;SDS011;9676;50.916;13.352;2023-04-16T12:17:25;12.30;;;11.10;;
19087;SDS011;9676;50.916;13.352;2023-04-16T12:20:14;12.77;;;11.50;;
19087;SDS011;9676;50.916;13.352;2023-04-16T12:23:04;11.53;;;10.43;;
19087;SDS011;9676;50.916;13.352;2023-04-16T12:25:54;11.57;;;10.47;;
19087;SDS011;9676;50.916;13.352;2023-04-16T12:28:49;11.30;;;10.20;;
19087;SDS011;9676;50.916;13.352;2023-04-16T12:31:38;11.60;;;10.50;;
19087;SDS011;9676;50.916;13.352;2023-04-16T12:34:29;11.50;;;10.40;;
19087;SDS011;9676;50.916;13.352;2023-04-16T12:37:35;11.17;;;10.17;;
19087;SDS011;9676;50.916;13.352;2023-04-16T12:40:25;11.20;;;10.10;;
19087;SDS011;9676;50.916;13.352;2023-04-16T12:43:14;11.10;;;10.10;;
19087;SDS011;9676;50.916;13.352;2023-04-16T12:46:04;11.50;;;10.40;;
19087;SDS011;9676;50.916;13.352;2023-04-16T12:48:53;24.23;;;21.20;;
19087;SDS011;9676;50.916;13.352;2023-04-16T12:51:45;16.00;;;14.30;;
19087;SDS011;9676;50.916;13.352;2023-04-16T12:54:34;13.30;;;12.00;;
19087;SDS011;9676;50.916;13.352;2023-04-16T12:57:24;13.20;;;12.00;;
19087;SDS011;9676;50.916;13.352;2023-04-16T13:00:15;12.50;;;11.30;;
19087;SDS011;9676;50.916;13.352;2023-04-16T13:03:05;12.07;;;10.97;;
19087;SDS011;9676;50.916;13.352;2023-04-16T13:05:54;11.80;;;10.70;;
19087;SDS011;9676;50.916;13.352;2023-04-16T13:08:45;12.33;;;11.03;;
19087;SDS011;9676;50.916;13.352;2023-04-16T13:11:35;12.03;;;10.83;;
19087;SDS011;9676;50.916;13.352;2023-04-16T13:14:24;11.10;;;10.10;;
19087;SDS011;9676;50.916;13.352;2023-04-16T13:17:13;11.57;;;10.40;;
19087;SDS011;9676;50.916;13.352;2023-04-16T13:20:03;10.80;;;9.80;;
19087;SDS011;9676;50.916;13.352;2023-04-16T13:22:53;11.30;;;10.20;;
19087;SDS011;9676;50.916;13.352;2023-04-16T13:25:44;11.40;;;10.30;;
19087;SDS011;9676;50.916;13.352;2023-04-16T13:28:37;11.57;;;10.47;;
19087;SDS011;9676;50.916;13.352;2023-04-16T13:31:26;11.40;;;10.30;;
19087;SDS011;9676;50.916;13.352;2023-04-16T13:34:15;10.80;;;9.80;;
19087;SDS011;9676;50.916;13.352;2023-04-16T13:37:05;11.40;;;10.30;;
19087;SDS011;9676;50.916;13.352;2023-04-16T13:39:54;11.77;;;10.67;;
19087;SDS011;9676;50.916;13.352;2023-04-16T13:42:45;11.10;;;10.10;;
19087;SDS011;9676;50.916;13.352;2023-04-16T13:45:36;11.30;;;10.27;;
19087;SDS011;9676;50.916;13.352;2023-04-16T13:48:25;13.73;;;10.30;;
19087;SDS011;9676;50.916;13.352;2023-04-16T13:51:16;11.27;;;10.17;;
19087;SDS011;9676;50.916;13.352;2023-04-16T13:54:05;11.03;;;10.03;;
19087;SDS011;9676;50.916;13.352;2023-04-16T13:56:54;11.37;;;10.27;;
19087;SDS011;9676;50.916;13.352;2023-04-16T13:59:45;11.00;;;10.00;;
19087;SDS011;9676;50.916;13.352;2023-04-16T14:02:35;11.03;;;10.03;;
19087;SDS011;9676;50.916;13.352;2023-04-16T14:05:24;10.73;;;9.73;;
19087;SDS011;9676;50.916;13.352;2023-04-16T14:08:14;10.90;;;9.80;;
19087;SDS011;9676;50.916;13.352;2023-04-16T14:11:03;11.10;;;9.80;;
19087;SDS011;9676;50.916;13.352;2023-04-16T14:13:53;10.80;;;9.80;;
19087;SDS011;9676;50.916;13.352;2023-04-16T14:16:44;10.90;;;9.90;;
19087;SDS011;9676;50.916;13.352;2023-04-16T14:19:33;10.60;;;9.63;;
19087;SDS011;9676;50.916;13.352;2023-04-16T14:22:23;10.80;;;9.80;;
19087;SDS011;9676;50.916;13.352;2023-04-16T14:25:12;10.53;;;9.53;;
19087;SDS011;9676;50.916;13.352;2023-04-16T14:28:02;10.80;;;9.80;;
19087;SDS011;9676;50.916;13.352;2023-04-16T14:30:51;10.53;;;9.53;;
19087;SDS011;9676;50.916;13.352;2023-04-16T14:33:42;10.80;;;9.80;;
19087;SDS011;9676;50.916;13.352;2023-04-16T14:36:32;10.50;;;9.50;;
19087;SDS011;9676;50.916;13.352;2023-04-16T14:39:21;10.37;;;9.47;;
19087;SDS011;9676;50.916;13.352;2023-04-16T14:42:11;10.80;;;9.80;;
19087;SDS011;9676;50.916;13.352;2023-04-16T14:45:01;10.60;;;9.70;;
19087;SDS011;9676;50.916;13.352;2023-04-16T14:47:52;10.40;;;9.50;;
19087;SDS011;9676;50.916;13.352;2023-04-16T14:50:43;10.60;;;9.70;;
19087;SDS011;9676;50.916;13.352;2023-04-16T14:53:33;11.37;;;10.37;;
19087;SDS011;9676;50.916;13.352;2023-04-16T14:56:24;10.40;;;9.50;;
19087;SDS011;9676;50.916;13.352;2023-04-16T14:59:13;10.37;;;9.47;;
19087;SDS011;9676;50.916;13.352;2023-04-16T15:02:03;10.27;;;9.37;;
19087;SDS011;9676;50.916;13.352;2023-04-16T15:04:53;10.20;;;9.30;;
19087;SDS011;9676;50.916;13.352;2023-04-16T15:07:43;10.20;;;9.30;;
19087;SDS011;9676;50.916;13.352;2023-04-16T15:10:33;10.10;;;9.20;;
19087;SDS011;9676;50.916;13.352;2023-04-16T15:13:23;10.13;;;9.23;;
19087;SDS011;9676;50.916;13.352;2023-04-16T15:16:19;10.43;;;9.53;;
19087;SDS011;9676;50.916;13.352;2023-04-16T15:19:09;10.33;;;9.43;;
19087;SDS011;9676;50.916;13.352;2023-04-16T15:21:58;10.40;;;9.50;;
19087;SDS011;9676;50.916;13.352;2023-04-16T15:24:49;9.93;;;9.03;;
19087;SDS011;9676;50.916;13.352;2023-04-16T15:27:40;10.10;;;9.23;;
19087;SDS011;9676;50.916;13.352;2023-04-16T15:30:29;10.20;;;9.30;;
19087;SDS011;9676;50.916;13.352;2023-04-16T15:33:19;10.63;;;9.63;;
19087;SDS011;9676;50.916;13.352;2023-04-16T15:36:09;10.23;;;9.27;;
19087;SDS011;9676;50.916;13.352;2023-04-16T15:38:58;10.33;;;9.43;;
19087;SDS011;9676;50.916;13.352;2023-04-16T15:41:49;11.00;;;10.00;;
19087;SDS011;9676;50.916;13.352;2023-04-16T15:44:47;10.50;;;9.60;;
19087;SDS011;9676;50.916;13.352;2023-04-16T15:47:37;10.67;;;9.73;;
19087;SDS011;9676;50.916;13.352;2023-04-16T15:50:28;10.30;;;9.40;;
19087;SDS011;9676;50.916;13.352;2023-04-16T15:53:17;10.30;;;9.40;;
19087;SDS011;9676;50.916;13.352;2023-04-16T15:56:07;10.43;;;9.50;;
19087;SDS011;9676;50.916;13.352;2023-04-16T15:58:58;10.30;;;9.40;;
19087;SDS011;9676;50.916;13.352;2023-04-16T16:01:47;10.57;;;9.67;;
19087;SDS011;9676;50.916;13.352;2023-04-16T16:04:37;10.40;;;9.50;;
19087;SDS011;9676;50.916;13.352;2023-04-16T16:07:32;10.90;;;9.90;;
19087;SDS011;9676;50.916;13.352;2023-04-16T16:10:23;10.17;;;9.30;;
19087;SDS011;9676;50.916;13.352;2023-04-16T16:13:12;10.23;;;9.33;;
19087;SDS011;9676;50.916;13.352;2023-04-16T16:16:05;10.50;;;9.60;;
19087;SDS011;9676;50.916;13.352;2023-04-16T16:18:55;11.27;;;10.27;;
19087;SDS011;9676;50.916;13.352;2023-04-16T16:21:44;10.80;;;9.90;;
19087;SDS011;9676;50.916;13.352;2023-04-16T16:24:34;11.10;;;10.10;;
19087;SDS011;9676;50.916;13.352;2023-04-16T16:27:23;10.03;;;9.23;;
19087;SDS011;9676;50.916;13.352;2023-04-16T16:30:13;10.10;;;9.30;;
19087;SDS011;9676;50.916;13.352;2023-04-16T16:33:04;10.40;;;9.50;;
19087;SDS011;9676;50.916;13.352;2023-04-16T16:35:53;10.10;;;9.30;;
19087;SDS011;9676;50.916;13.352;2023-04-16T16:38:42;10.50;;;9.60;;
19087;SDS011;9676;50.916;13.352;2023-04-16T16:41:33;10.33;;;9.43;;